Time;durP1;ratioP1;P1;durP2;ratioP2;P2;SDS_P1;SDS_P2;PMS_P1;PMS_P2;Temp;Humidity;BMP_temperature;BMP_pressure;BME280_temperature;BME280_humidity;BME280_pressure;Samples;Min_cycle;Max_cycle;Signal;HPM_P1;HPM_P2
2022/05/11 00:00:45;;;;;;;4.50;2.38;;;;;;;10.77;77.54;95326.09;5048762;28;20080;-69
2022/05/11 00:03:12;;;;;;;4.75;2.65;;;;;;;10.67;77.48;95325.78;5078801;28;20114;-69
2022/05/11 00:05:39;;;;;;;5.32;2.60;;;;;;;10.55;77.62;95312.69;5061443;28;20051;-69
2022/05/11 00:08:07;;;;;;;4.43;2.38;;;;;;;10.49;78.03;95314.38;5063434;28;20049;-70
2022/05/11 00:10:35;;;;;;;3.88;2.35;;;;;;;10.45;78.48;95317.66;5049039;28;20048;-70
2022/05/11 00:13:04;;;;;;;3.63;2.40;;;;;;;10.35;78.51;95315.53;5077828;28;20083;-70
2022/05/11 00:15:32;;;;;;;5.22;2.35;;;;;;;10.18;78.70;95322.31;5067558;28;20584;-70
2022/05/11 00:18:00;;;;;;;4.90;2.67;;;;;;;10.04;79.43;95322.44;5078342;28;20052;-70
2022/05/11 00:20:27;;;;;;;4.28;2.30;;;;;;;9.93;80.04;95315.34;5065629;28;20072;-70
2022/05/11 00:22:57;;;;;;;4.03;2.40;;;;;;;9.84;80.10;95321.81;5081357;28;20047;-69
2022/05/11 00:25:25;;;;;;;4.05;2.50;;;;;;;9.71;80.94;95307.91;5065324;28;20143;-69
2022/05/11 00:27:54;;;;;;;3.47;2.10;;;;;;;9.58;82.00;95315.84;5074401;28;20063;-70
2022/05/11 00:30:22;;;;;;;5.05;2.85;;;;;;;9.35;84.14;95293.81;5053768;28;20055;-69
2022/05/11 00:32:53;;;;;;;8.05;2.83;;;;;;;9.42;85.98;95313.75;5052307;28;20044;-69
2022/05/11 00:35:21;;;;;;;4.63;2.67;;;;;;;9.20;89.16;95311.50;5046642;28;20135;-69
2022/05/11 00:37:48;;;;;;;5.25;2.90;;;;;;;9.14;90.67;95307.13;5076688;28;20048;-69
2022/05/11 00:40:17;;;;;;;4.07;2.38;;;;;;;9.10;88.63;95305.97;5063651;28;20594;-69
2022/05/11 00:42:44;;;;;;;3.78;2.70;;;;;;;9.20;86.71;95316.72;5076126;28;20040;-69
2022/05/11 00:45:12;;;;;;;3.30;2.10;;;;;;;9.23;86.74;95318.88;5072479;28;20040;-69
2022/05/11 00:47:48;;;;;;;4.15;2.38;;;;;;;9.30;86.40;95311.81;5042920;28;20299;-70
2022/05/11 00:50:20;;;;;;;3.00;2.28;;;;;;;9.31;85.85;95317.81;5042463;28;20556;-69
2022/05/11 00:52:50;;;;;;;3.45;2.63;;;;;;;9.24;86.80;95312.69;5059270;28;20049;-69
2022/05/11 00:55:29;;;;;;;4.30;3.17;;;;;;;9.22;87.27;95319.91;5048103;28;20052;-69
2022/05/11 00:58:02;;;;;;;4.63;2.88;;;;;;;9.18;86.66;95324.72;5074272;28;20434;-69
2022/05/11 01:00:29;;;;;;;3.83;2.88;;;;;;;9.15;86.94;95324.34;5078054;28;20051;-69
2022/05/11 01:03:10;;;;;;;5.65;2.97;;;;;;;9.06;87.49;95310.00;5077800;28;20513;-69
2022/05/11 01:05:39;;;;;;;3.65;2.83;;;;;;;9.07;87.18;95311.59;5073126;28;20813;-69
2022/05/11 01:08:07;;;;;;;7.72;4.03;;;;;;;9.11;87.00;95307.56;5064074;28;20056;-70
2022/05/11 01:10:34;;;;;;;10.02;2.38;;;;;;;9.05;86.93;95300.59;5069712;28;20048;-70
2022/05/11 01:13:06;;;;;;;5.30;2.90;;;;;;;9.03;87.53;95306.00;5079967;28;20036;-70
2022/05/11 01:15:33;;;;;;;4.88;2.55;;;;;;;9.05;88.22;95308.41;5066385;28;20513;-70
2022/05/11 01:18:06;;;;;;;4.18;2.10;;;;;;;9.13;86.69;95310.75;5075056;28;20055;-69
2022/05/11 01:20:36;;;;;;;6.45;2.67;;;;;;;9.14;85.60;95307.13;5062658;28;20541;-69
2022/05/11 01:23:25;;;;;;;3.75;2.30;;;;;;;9.13;85.30;95305.56;5078425;28;20754;-68
2022/05/11 01:25:54;;;;;;;3.08;2.15;;;;;;;9.13;84.81;95293.34;5042266;28;20536;-68
2022/05/11 01:28:21;;;;;;;4.20;2.63;;;;;;;9.11;84.53;95292.78;5035194;28;20454;-68
2022/05/11 01:30:52;;;;;;;5.60;2.08;;;;;;;8.98;84.29;95272.88;5062488;28;20044;-69
2022/05/11 01:33:23;;;;;;;4.18;2.70;;;;;;;9.12;84.20;95298.75;5069492;28;20048;-67
2022/05/11 01:36:18;;;;;;;4.07;2.42;;;;;;;9.14;84.09;95301.94;5068531;28;20047;-69
2022/05/11 01:38:49;;;;;;;5.05;2.40;;;;;;;9.13;83.10;95310.75;5061256;28;20370;-68
2022/05/11 01:41:22;;;;;;;3.35;2.08;;;;;;;9.12;83.01;95309.16;5062363;28;20046;-68
2022/05/11 01:43:51;;;;;;;2.88;2.08;;;;;;;9.11;82.33;95316.16;5075963;28;20063;-70
2022/05/11 01:46:19;;;;;;;4.85;2.58;;;;;;;9.09;82.17;95309.56;5042082;28;20069;-69
2022/05/11 01:48:47;;;;;;;5.10;2.40;;;;;;;9.06;82.46;95304.81;5041358;28;20045;-69
2022/05/11 01:51:15;;;;;;;4.05;2.55;;;;;;;9.11;83.27;95308.38;5046177;28;20518;-69
2022/05/11 01:53:43;;;;;;;4.53;2.97;;;;;;;9.09;83.79;95310.38;5062077;28;20036;-70
2022/05/11 01:56:13;;;;;;;4.38;2.63;;;;;;;9.08;84.81;95308.00;5079823;28;20388;-70
2022/05/11 01:58:40;;;;;;;4.50;2.88;;;;;;;9.12;85.23;95309.16;5078293;28;20773;-70
2022/05/11 02:01:07;;;;;;;4.20;2.35;;;;;;;9.15;85.83;95308.75;5070995;28;20780;-69
2022/05/11 02:03:34;;;;;;;4.20;2.78;;;;;;;9.18;86.14;95313.50;5064591;28;20480;-70
2022/05/11 02:08:47;;;;;;;5.00;2.92;;;;;;;9.27;87.81;95314.84;5062000;28;20560;-70
2022/05/11 02:11:14;;;;;;;3.83;2.53;;;;;;;9.28;88.57;95313.84;5046732;28;20037;-70
2022/05/11 02:13:43;;;;;;;3.85;3.03;;;;;;;9.18;89.33;95303.09;5075171;28;20060;-70
2022/05/11 02:16:10;;;;;;;5.80;3.78;;;;;;;9.20;90.74;95301.13;5070358;28;20716;-70
2022/05/11 02:18:37;;;;;;;3.70;2.92;;;;;;;9.20;91.82;95306.31;5076384;28;20830;-70
2022/05/11 02:21:07;;;;;;;8.07;3.85;;;;;;;9.22;92.17;95306.91;5061696;28;20041;-70
2022/05/11 02:23:35;;;;;;;8.77;3.90;;;;;;;9.19;92.46;95305.50;5065854;28;20036;-70
2022/05/11 02:26:03;;;;;;;6.70;3.50;;;;;;;9.21;92.42;95305.28;5077593;28;20033;-70
2022/05/11 02:28:30;;;;;;;6.10;3.58;;;;;;;9.14;92.17;95301.94;5053221;28;20048;-70
2022/05/11 02:31:02;;;;;;;6.22;3.50;;;;;;;9.14;92.75;95299.34;5060009;28;20052;-71
2022/05/11 02:33:29;;;;;;;8.07;3.65;;;;;;;9.14;93.00;95301.94;5080154;28;20050;-70
2022/05/11 02:35:56;;;;;;;7.10;3.20;;;;;;;9.12;93.21;95298.75;5070626;28;20441;-71
2022/05/11 02:38:30;;;;;;;5.53;3.63;;;;;;;9.18;93.04;95311.72;5076433;28;20048;-71
2022/05/11 02:40:57;;;;;;;7.50;3.78;;;;;;;9.18;93.33;95308.31;5063903;28;20074;-71
2022/05/11 02:43:23;;;;;;;5.88;3.58;;;;;;;9.21;93.36;95307.91;5051611;28;20033;-71
2022/05/11 02:45:50;;;;;;;6.82;3.25;;;;;;;9.29;92.40;95310.25;5073321;28;20040;-71
2022/05/11 02:48:22;;;;;;;7.57;3.80;;;;;;;9.33;92.85;95316.63;5047592;28;20526;-71
2022/05/11 02:50:52;;;;;;;6.25;4.05;;;;;;;9.40;92.35;95315.75;5059696;28;20536;-70
2022/05/11 02:53:20;;;;;;;5.18;3.38;;;;;;;9.51;91.92;95312.50;5058944;28;20043;-71
2022/05/11 02:55:49;;;;;;;7.65;4.40;;;;;;;9.37;92.01;95286.56;5080785;28;20044;-70
2022/05/11 02:58:20;;;;;;;6.65;3.58;;;;;;;9.52;92.41;95306.28;5074031;28;20040;-70
2022/05/11 03:00:49;;;;;;;5.22;3.67;;;;;;;9.59;92.52;95309.63;5072155;28;20044;-70
2022/05/11 03:03:18;;;;;;;6.43;4.28;;;;;;;9.57;92.87;95311.63;5049640;28;20097;-70
2022/05/11 03:05:45;;;;;;;5.50;3.67;;;;;;;9.55;93.61;95314.44;5080828;28;20760;-70
2022/05/11 03:08:12;;;;;;;7.15;3.40;;;;;;;9.63;93.49;95308.16;5056946;28;20049;-70
2022/05/11 03:10:39;;;;;;;5.70;3.55;;;;;;;9.71;93.10;95312.34;5047038;28;20048;-71
2022/05/11 03:13:07;;;;;;;5.82;3.70;;;;;;;9.79;93.10;95313.84;5077692;28;20055;-70
2022/05/11 03:15:34;;;;;;;5.15;3.92;;;;;;;9.81;93.47;95306.63;5048546;28;20040;-70
2022/05/11 03:18:02;;;;;;;5.72;3.42;;;;;;;9.85;93.56;95313.00;5071991;28;20036;-70
2022/05/11 03:20:28;;;;;;;6.47;3.90;;;;;;;9.95;93.53;95323.72;5074472;28;20048;-70
2022/05/11 03:22:55;;;;;;;6.72;4.05;;;;;;;9.94;92.95;95311.72;5049502;28;20036;-70
2022/05/11 03:25:23;;;;;;;7.00;3.97;;;;;;;9.97;93.08;95316.47;5077467;28;20040;-70
2022/05/11 03:27:51;;;;;;;5.18;3.42;;;;;;;9.95;93.04;95323.72;5062587;28;20048;-70
2022/05/11 03:30:18;;;;;;;12.65;4.43;;;;;;;9.89;92.87;95314.19;5058024;28;20513;-70
2022/05/11 03:35:35;;;;;;;8.38;4.80;;;;;;;9.77;93.78;95327.88;5058756;28;20051;-70
2022/05/11 03:38:03;;;;;;;9.85;3.90;;;;;;;9.79;94.15;95319.06;5083626;28;20056;-69
2022/05/11 03:40:29;;;;;;;10.20;3.78;;;;;;;9.94;93.37;95322.13;5060275;28;20053;-69
2022/05/11 03:42:56;;;;;;;5.25;3.25;;;;;;;9.95;92.07;95323.72;5079096;28;20052;-69
2022/05/11 03:45:25;;;;;;;5.35;3.22;;;;;;;9.96;88.82;95325.31;5067937;28;20363;-70
2022/05/11 03:47:52;;;;;;;6.40;3.85;;;;;;;9.98;87.94;95328.50;5035783;28;20139;-70
2022/05/11 03:50:22;;;;;;;5.82;3.72;;;;;;;10.00;87.78;95336.88;5062184;28;20525;-69
2022/05/11 03:52:51;;;;;;;6.68;3.83;;;;;;;10.06;87.70;95346.44;5069081;28;20138;-69
2022/05/11 03:55:18;;;;;;;6.80;2.80;;;;;;;10.09;87.57;95350.41;5074151;28;20502;-69
2022/05/11 03:57:46;;;;;;;9.18;3.72;;;;;;;10.08;87.74;95354.84;5081225;28;20033;-69
2022/05/11 04:00:18;;;;;;;7.55;3.05;;;;;;;10.13;87.16;95357.56;5078123;28;20123;-70
2022/05/11 04:02:45;;;;;;;6.97;3.30;;;;;;;10.05;86.43;95344.84;5057626;28;20052;-69
2022/05/11 04:05:14;;;;;;;5.15;3.55;;;;;;;10.03;86.39;95357.28;5053969;28;20087;-71
2022/05/11 04:07:42;;;;;;;8.35;3.75;;;;;;;9.99;86.41;95361.31;5064595;28;20609;-70
2022/05/11 04:10:10;;;;;;;6.47;3.42;;;;;;;9.91;87.16;95364.19;5058694;28;20122;-69
2022/05/11 04:12:38;;;;;;;6.03;3.33;;;;;;;9.91;88.07;95364.19;5081593;28;20588;-69
2022/05/11 04:15:06;;;;;;;6.47;3.72;;;;;;;9.82;88.43;95360.25;5086412;28;20045;-69
2022/05/11 04:17:34;;;;;;;10.27;5.15;;;;;;;9.85;89.22;95371.03;5055243;28;20955;-69
2022/05/11 04:20:03;;;;;;;8.40;4.88;;;;;;;9.77;89.13;95372.09;5062266;28;20576;-69
2022/05/11 04:22:30;;;;;;;8.43;3.90;;;;;;;9.73;88.70;95370.13;5061278;28;20666;-69
2022/05/11 04:24:57;;;;;;;12.73;4.70;;;;;;;9.66;88.30;95367.56;5062402;28;20033;-70
2022/05/11 04:27:24;;;;;;;7.75;4.63;;;;;;;9.61;88.65;95375.22;5093104;28;20051;-69
2022/05/11 04:29:51;;;;;;;15.90;4.88;;;;;;;9.56;88.59;95368.06;5063707;28;20049;-69
2022/05/11 04:32:18;;;;;;;6.60;3.63;;;;;;;9.65;88.80;95376.41;5064287;28;20631;-71
2022/05/11 04:34:50;;;;;;;7.72;4.07;;;;;;;9.65;88.41;95371.19;5065365;28;20328;-71
2022/05/11 04:37:18;;;;;;;6.75;3.90;;;;;;;9.62;88.75;95369.00;5058702;28;20047;-70
2022/05/11 04:39:45;;;;;;;6.82;4.05;;;;;;;9.64;89.01;95374.78;5055207;28;20048;-70
2022/05/11 04:42:12;;;;;;;4.82;3.15;;;;;;;9.77;89.28;95385.09;5051222;28;20784;-69
2022/05/11 04:44:38;;;;;;;11.48;4.50;;;;;;;9.84;89.96;95385.03;5052683;28;20099;-69
2022/05/11 04:47:08;;;;;;;7.07;3.85;;;;;;;9.93;89.99;95380.38;5050996;28;20044;-70
2022/05/11 04:49:35;;;;;;;8.55;3.08;;;;;;;9.99;89.73;95382.13;5052151;28;20518;-70
2022/05/11 04:52:08;;;;;;;8.35;4.68;;;;;;;10.08;90.02;95385.25;5048685;28;20050;-71
2022/05/11 04:54:44;;;;;;;11.07;4.45;;;;;;;10.19;89.88;95386.34;5056707;28;20032;-71
2022/05/11 04:57:12;;;;;;;14.07;4.93;;;;;;;10.26;89.45;95387.09;5056115;28;20045;-71
2022/05/11 04:59:40;;;;;;;6.53;4.05;;;;;;;10.24;89.26;95395.13;5062508;28;20073;-71
2022/05/11 05:02:14;;;;;;;23.38;5.05;;;;;;;10.26;88.69;95381.88;5060248;28;20101;-70
2022/05/11 05:04:42;;;;;;;12.55;4.70;;;;;;;10.38;88.55;95395.81;5063457;28;20514;-71
2022/05/11 05:07:09;;;;;;;6.70;4.68;;;;;;;10.37;88.76;95394.25;5063682;28;20044;-71
2022/05/11 05:09:36;;;;;;;7.68;5.68;;;;;;;10.41;88.76;95398.00;5057421;28;20047;-70
2022/05/11 05:12:04;;;;;;;13.50;4.75;;;;;;;10.41;88.89;95400.59;5066151;28;20047;-71
2022/05/11 05:14:32;;;;;;;9.65;5.68;;;;;;;10.44;88.60;95399.38;5057850;28;20037;-71
2022/05/11 05:17:07;;;;;;;7.45;5.43;;;;;;;10.57;89.37;95403.66;5064027;28;20055;-71
2022/05/11 05:19:37;;;;;;;10.38;5.60;;;;;;;10.71;89.68;95405.09;5066003;28;20069;-69
2022/05/11 05:22:04;;;;;;;9.48;5.85;;;;;;;10.88;90.44;95400.91;5069467;28;20415;-71
2022/05/11 05:24:31;;;;;;;12.00;5.68;;;;;;;11.05;90.12;95400.31;5069069;28;20067;-71
2022/05/11 05:26:59;;;;;;;12.65;5.40;;;;;;;11.15;89.70;95405.81;5076708;28;20503;-71
2022/05/11 05:32:13;;;;;;;10.68;4.85;;;;;;;11.18;89.55;95417.59;5048669;28;20742;-70
2022/05/11 05:34:40;;;;;;;8.48;4.82;;;;;;;11.28;89.43;95421.25;5063570;28;20041;-70
2022/05/11 05:37:07;;;;;;;6.82;4.50;;;;;;;11.47;89.44;95410.81;5077729;28;20052;-71
2022/05/11 05:39:33;;;;;;;9.70;5.03;;;;;;;11.64;90.62;95419.56;5046314;28;20049;-70
2022/05/11 05:42:00;;;;;;;9.65;6.25;;;;;;;11.82;89.48;95420.53;5061728;28;20052;-71
2022/05/11 05:44:31;;;;;;;8.65;5.63;;;;;;;11.91;89.03;95421.84;5058863;28;20493;-70
2022/05/11 05:47:08;;;;;;;9.00;5.28;;;;;;;12.10;88.39;95429.56;5067930;28;20532;-70
2022/05/11 05:49:35;;;;;;;12.38;5.95;;;;;;;12.25;87.27;95435.16;5059276;28;20060;-71
2022/05/11 05:52:02;;;;;;;9.70;5.15;;;;;;;12.36;86.40;95431.75;5048908;28;20044;-71
2022/05/11 05:54:31;;;;;;;6.35;4.55;;;;;;;12.49;85.49;95428.13;5058472;28;20425;-71
2022/05/11 05:56:59;;;;;;;7.70;4.93;;;;;;;12.58;83.86;95429.34;5077586;28;20433;-71
2022/05/11 05:59:26;;;;;;;7.15;5.25;;;;;;;12.84;82.77;95431.72;5067684;28;20051;-71
2022/05/11 06:01:53;;;;;;;9.98;6.00;;;;;;;12.92;82.46;95433.97;5076344;28;20045;-71
2022/05/11 06:04:21;;;;;;;9.25;5.40;;;;;;;13.05;82.00;95438.94;5054046;28;20047;-71
2022/05/11 06:06:48;;;;;;;7.43;5.20;;;;;;;13.04;81.43;95432.16;5080763;28;20044;-71
2022/05/11 06:09:15;;;;;;;8.35;5.53;;;;;;;13.08;81.96;95438.50;5068188;28;20059;-71
2022/05/11 06:11:43;;;;;;;9.02;5.95;;;;;;;13.10;80.89;95436.44;5054114;28;20043;-71
2022/05/11 06:14:10;;;;;;;8.98;6.15;;;;;;;12.89;81.31;95442.28;5076795;28;20106;-71
2022/05/11 06:16:38;;;;;;;8.80;6.13;;;;;;;12.85;80.50;95443.78;5078269;28;20044;-71
2022/05/11 06:19:05;;;;;;;10.82;6.30;;;;;;;12.82;79.80;95440.59;5054680;28;20044;-71
2022/05/11 06:21:34;;;;;;;9.18;5.20;;;;;;;13.08;79.22;95441.09;5079705;28;20051;-71
2022/05/11 06:24:01;;;;;;;8.32;4.70;;;;;;;13.15;77.59;95438.38;5065259;28;20122;-71
2022/05/11 06:26:28;;;;;;;15.70;5.03;;;;;;;13.18;75.95;95446.56;5073500;28;20040;-70
2022/05/11 06:29:15;;;;;;;7.22;4.72;;;;;;;13.28;78.93;95453.00;5050704;28;20137;-71
2022/05/11 06:31:42;;;;;;;9.77;6.57;;;;;;;13.18;80.62;95438.72;5052629;28;20051;-70
2022/05/11 06:34:09;;;;;;;13.10;5.10;;;;;;;13.19;79.21;95434.25;5061363;28;20048;-71
2022/05/11 06:36:36;;;;;;;12.63;5.88;;;;;;;13.47;79.30;95448.41;5055859;28;20036;-70
2022/05/11 06:39:03;;;;;;;11.13;5.63;;;;;;;13.68;77.07;95452.97;5063924;28;20790;-70
2022/05/11 06:41:31;;;;;;;10.23;4.72;;;;;;;13.86;75.53;95446.75;5076889;28;20051;-71
2022/05/11 06:43:58;;;;;;;8.15;4.57;;;;;;;13.98;74.93;95445.91;5051124;28;20114;-71
2022/05/11 06:46:25;;;;;;;7.35;4.45;;;;;;;14.10;73.99;95454.50;5074930;28;20051;-70
2022/05/11 06:48:52;;;;;;;7.95;4.03;;;;;;;14.43;72.74;95452.91;5076244;28;20144;-71
2022/05/11 06:51:20;;;;;;;7.78;5.35;;;;;;;14.76;71.60;95446.84;5060216;28;20049;-71
2022/05/11 06:59:29;;;;;;;6.88;3.90;;;;;;;15.57;65.78;95450.69;5065430;28;20036;-70
2022/05/11 07:01:58;;;;;;;8.93;4.57;;;;;;;15.71;62.28;95436.13;5065117;28;20044;-71
2022/05/11 07:04:26;;;;;;;7.50;3.70;;;;;;;15.96;63.59;95453.97;5056063;28;20487;-71
2022/05/11 07:06:55;;;;;;;5.72;3.38;;;;;;;16.12;60.38;95447.03;5057935;28;20044;-70
2022/05/11 07:09:25;;;;;;;13.55;4.07;;;;;;;15.98;61.33;95440.59;5046207;28;20056;-69
2022/05/11 07:14:39;;;;;;;5.35;3.90;;;;;;;16.22;60.03;95441.88;5073841;28;20041;-70
2022/05/11 07:17:06;;;;;;;4.18;2.92;;;;;;;16.40;58.76;95434.59;5094314;28;20139;-70
2022/05/11 07:19:33;;;;;;;5.20;3.17;;;;;;;16.59;56.51;95435.78;5047411;28;20052;-71
2022/05/11 07:22:01;;;;;;;7.15;3.28;;;;;;;16.65;56.51;95425.31;5058524;28;20041;-70
2022/05/11 07:24:28;;;;;;;6.63;3.97;;;;;;;16.74;56.56;95423.78;5053444;28;20128;-70
2022/05/11 07:26:55;;;;;;;4.80;2.80;;;;;;;16.92;55.04;95415.47;5069892;28;20048;-70
2022/05/11 07:29:22;;;;;;;4.05;2.58;;;;;;;17.02;51.48;95432.38;5058224;28;20314;-70
2022/05/11 07:31:49;;;;;;;5.63;2.50;;;;;;;17.06;50.55;95428.19;5064615;28;20072;-70
2022/05/11 07:34:16;;;;;;;6.22;2.17;;;;;;;17.22;49.41;95421.91;5062167;28;20670;-70
2022/05/11 07:36:44;;;;;;;6.20;2.42;;;;;;;17.51;50.41;95418.84;5064613;28;20528;-71
2022/05/11 07:39:11;;;;;;;3.17;2.13;;;;;;;17.63;47.55;95416.78;5046103;28;20060;-70
2022/05/11 07:41:38;;;;;;;5.60;2.38;;;;;;;17.82;48.04;95418.91;5093003;28;20079;-71
2022/05/11 07:44:05;;;;;;;10.63;3.40;;;;;;;18.08;48.75;95420.53;5049262;28;20040;-70
2022/05/11 07:46:35;;;;;;;13.48;3.15;;;;;;;18.27;46.40;95420.78;5079195;28;20754;-72
2022/05/11 07:49:04;;;;;;;4.55;2.38;;;;;;;18.04;48.11;95416.84;5048265;28;20048;-71
2022/05/11 07:51:32;;;;;;;8.10;2.92;;;;;;;18.13;47.84;95415.25;5062448;28;20036;-70
2022/05/11 07:53:59;;;;;;;8.18;3.92;;;;;;;18.22;48.52;95427.91;5066642;28;20043;-70
2022/05/11 08:01:59;;;;;;;7.07;2.00;;;;;;;18.61;44.57;95414.16;5079589;28;20103;-71
2022/05/11 08:04:26;;;;;;;6.72;1.95;;;;;;;18.79;43.90;95410.16;5064060;28;20049;-70
2022/05/11 08:06:53;;;;;;;5.28;2.50;;;;;;;18.68;42.04;95404.09;5075934;28;20040;-70
2022/05/11 08:09:21;;;;;;;6.45;2.53;;;;;;;18.87;41.82;95402.50;5049642;28;20036;-70
2022/05/11 08:11:50;;;;;;;7.00;2.20;;;;;;;18.91;42.86;95402.75;5066576;28;20044;-70
2022/05/11 08:14:17;;;;;;;10.00;2.72;;;;;;;19.04;42.20;95411.94;5066749;28;20041;-70
2022/05/11 08:16:44;;;;;;;5.60;2.15;;;;;;;19.03;41.76;95399.78;5042419;28;20041;-75
2022/05/11 08:19:12;;;;;;;3.90;1.88;;;;;;;19.32;42.55;95407.06;5070932;28;20053;-70
2022/05/11 08:21:41;;;;;;;3.15;2.40;;;;;;;19.43;43.21;95390.13;5074863;28;20850;-70
2022/05/11 08:24:08;;;;;;;2.70;1.80;;;;;;;19.43;42.32;95398.03;5060342;28;20052;-70
2022/05/11 08:26:35;;;;;;;7.95;1.75;;;;;;;19.43;43.09;95404.09;5070742;28;20051;-70
2022/05/11 08:29:01;;;;;;;5.07;2.05;;;;;;;19.56;41.95;95392.16;5066813;28;20046;-71
2022/05/11 08:34:13;;;;;;;5.75;2.13;;;;;;;19.75;42.24;95388.88;5062476;28;20047;-70
2022/05/11 08:36:41;;;;;;;5.13;1.65;;;;;;;19.92;41.36;95389.28;5071425;28;20047;-71
2022/05/11 08:39:08;;;;;;;4.80;2.13;;;;;;;20.30;42.27;95392.16;5049127;28;20064;-71
2022/05/11 08:41:50;;;;;;;4.50;2.00;;;;;;;20.47;42.17;95383.00;5074804;28;20044;-71
2022/05/11 08:44:26;;;;;;;5.85;2.10;;;;;;;20.57;41.02;95382.91;5047992;28;20048;-71
2022/05/11 08:46:55;;;;;;;3.10;2.15;;;;;;;20.49;41.86;95386.13;5069213;28;20681;-71
2022/05/11 08:49:50;;;;;;;3.90;2.55;;;;;;;20.74;41.18;95391.22;5060027;28;20717;-71
2022/05/11 08:52:50;;;;;;;2.90;1.88;;;;;;;20.89;40.97;95384.19;5053412;28;20090;-71
2022/05/11 08:55:51;;;;;;;4.45;2.17;;;;;;;21.18;40.95;95382.22;5065992;28;20647;-71
2022/05/11 08:58:25;;;;;;;3.83;2.53;;;;;;;20.98;40.72;95382.47;5048615;28;20044;-71
2022/05/11 09:00:55;;;;;;;4.10;2.53;;;;;;;20.82;40.42;95384.50;5088815;28;20052;-71
2022/05/11 09:03:39;;;;;;;7.15;2.40;;;;;;;21.21;40.81;95386.16;5063359;28;20048;-72
2022/05/11 09:06:20;;;;;;;4.87;2.33;;;;;;;21.30;39.60;95383.66;5059000;28;20078;-71
2022/05/11 09:08:47;;;;;;;4.03;2.35;;;;;;;21.74;40.17;95371.94;5046966;28;20047;-71
2022/05/11 09:11:23;;;;;;;4.32;2.67;;;;;;;22.20;38.34;95387.16;5042158;28;20037;-71
2022/05/11 09:13:50;;;;;;;3.30;2.17;;;;;;;22.35;38.34;95380.81;5075514;28;20695;-71
2022/05/11 09:16:23;;;;;;;3.17;1.98;;;;;;;22.35;36.99;95385.34;5084946;28;20131;-71
2022/05/11 09:18:51;;;;;;;6.78;2.03;;;;;;;22.53;37.46;95379.16;5077661;28;20040;-71
2022/05/11 09:21:22;;;;;;;3.17;2.05;;;;;;;22.80;37.45;95381.06;5074779;28;20052;-71
2022/05/11 09:24:04;;;;;;;2.97;2.00;;;;;;;22.89;36.18;95383.81;5060178;28;20473;-71
2022/05/11 09:26:39;;;;;;;3.42;2.03;;;;;;;22.39;36.49;95381.00;5047377;28;20438;-71
2022/05/11 09:29:33;;;;;;;2.88;1.77;;;;;;;22.59;37.55;95383.28;5053493;28;20037;-71
2022/05/11 09:32:25;;;;;;;6.43;2.28;;;;;;;22.88;37.45;95380.34;5048369;28;20056;-71
2022/05/11 09:34:52;;;;;;;2.50;2.05;;;;;;;23.02;35.70;95367.06;5072380;28;20059;-70
2022/05/11 09:37:55;;;;;;;3.22;2.20;;;;;;;23.73;33.85;95379.16;5071772;28;20032;-71
2022/05/11 09:40:22;;;;;;;2.50;1.38;;;;;;;23.68;34.26;95377.41;5058293;28;20048;-71
2022/05/11 09:43:01;;;;;;;2.63;2.00;;;;;;;23.64;34.32;95382.53;5056536;28;20493;-71
2022/05/11 09:45:48;;;;;;;4.72;1.80;;;;;;;24.06;33.86;95361.13;5068077;28;20048;-70
2022/05/11 09:48:19;;;;;;;2.25;1.60;;;;;;;24.32;35.14;95371.13;5052231;28;20041;-71
2022/05/11 09:50:53;;;;;;;3.33;2.30;;;;;;;24.66;32.45;95377.72;5052989;28;20147;-71
2022/05/11 09:53:31;;;;;;;5.57;2.92;;;;;;;24.33;32.87;95370.03;5080733;28;20122;-70
2022/05/11 09:56:29;;;;;;;4.70;2.00;;;;;;;23.76;33.64;95379.31;5058858;28;20195;-70
2022/05/11 09:58:56;;;;;;;2.88;2.05;;;;;;;23.22;33.88;95375.72;5067332;28;20037;-70
2022/05/11 10:01:28;;;;;;;2.95;1.85;;;;;;;23.39;33.63;95365.28;5078008;28;20048;-71
2022/05/11 10:04:02;;;;;;;3.13;2.15;;;;;;;23.38;33.66;95379.63;5045886;28;20508;-71
2022/05/11 10:06:55;;;;;;;3.17;1.77;;;;;;;23.58;33.63;95373.09;5047685;28;20132;-71
2022/05/11 10:09:31;;;;;;;2.67;1.92;;;;;;;23.70;34.10;95367.25;5043552;28;20537;-70
2022/05/11 10:12:10;;;;;;;4.65;2.13;;;;;;;23.93;33.71;95369.94;5053155;28;20048;-70
2022/05/11 10:23:58;;;;;;;2.50;1.70;;;;;;;24.94;31.61;95363.09;5076934;28;20057;-70
2022/05/11 10:27:07;;;;;;;2.60;1.90;;;;;;;25.33;30.35;95356.13;5050216;28;20041;-70
2022/05/11 10:29:43;;;;;;;2.40;1.42;;;;;;;25.69;29.62;95360.38;4975166;28;20128;-70
2022/05/11 10:32:41;;;;;;;3.13;1.58;;;;;;;25.95;30.66;95356.97;5055065;28;20056;-70
2022/05/11 10:35:20;;;;;;;3.88;2.13;;;;;;;26.42;31.21;95359.69;5070750;28;20082;-70
2022/05/11 10:38:18;;;;;;;2.85;1.48;;;;;;;26.82;29.11;95359.38;5041394;28;20075;-70
2022/05/11 10:41:19;;;;;;;1.73;1.38;;;;;;;26.89;28.54;95362.34;5064106;28;20584;-70
2022/05/11 10:44:04;;;;;;;2.78;1.40;;;;;;;26.45;27.86;95363.59;5058915;28;20063;-70
2022/05/11 10:46:50;;;;;;;3.30;1.88;;;;;;;26.26;28.96;95356.72;5066343;28;20040;-70
2022/05/11 10:49:53;;;;;;;4.35;1.88;;;;;;;26.17;29.47;95357.88;5046067;28;20060;-70
2022/05/11 10:52:26;;;;;;;2.97;1.77;;;;;;;25.98;31.02;95367.00;5072935;28;20074;-70
2022/05/11 10:55:11;;;;;;;2.92;2.08;;;;;;;26.04;29.62;95365.75;5066489;28;20636;-70
2022/05/11 10:58:06;;;;;;;2.38;1.83;;;;;;;26.02;29.91;95362.59;5066896;28;20029;-70
2022/05/11 11:00:39;;;;;;;2.28;1.58;;;;;;;25.45;30.63;95368.88;5064388;28;20083;-70
2022/05/11 11:03:25;;;;;;;4.30;2.47;;;;;;;25.43;31.90;95372.94;5064114;28;20121;-70
2022/05/11 11:09:13;;;;;;;2.78;1.80;;;;;;;25.76;33.54;95371.38;5060262;28;20032;-71
2022/05/11 11:11:58;;;;;;;2.78;2.28;;;;;;;25.53;32.92;95367.28;5068530;28;20639;-71
2022/05/11 11:14:31;;;;;;;3.55;2.30;;;;;;;25.28;35.26;95361.63;5075149;28;20063;-71
2022/05/11 11:17:05;;;;;;;2.80;1.83;;;;;;;25.28;34.94;95368.84;5062502;28;20041;-71
2022/05/11 11:19:34;;;;;;;9.40;2.15;;;;;;;25.18;35.23;95372.56;5061736;28;20055;-70
2022/05/11 11:22:05;;;;;;;3.17;2.40;;;;;;;25.33;34.28;95369.47;5054400;28;20721;-71
2022/05/11 11:24:34;;;;;;;3.13;2.28;;;;;;;25.56;34.88;95372.78;5072094;28;20583;-70
2022/05/11 11:27:06;;;;;;;3.00;1.92;;;;;;;25.59;34.18;95366.06;5062545;28;20046;-70
2022/05/11 11:29:38;;;;;;;5.25;2.63;;;;;;;25.56;33.38;95377.34;5062642;28;20068;-71
2022/05/11 11:32:05;;;;;;;4.40;2.47;;;;;;;25.32;33.12;95385.78;5072306;28;20055;-71
2022/05/11 11:34:38;;;;;;;8.13;1.70;;;;;;;24.10;36.40;95372.72;5063130;28;20063;-70
2022/05/11 11:37:30;;;;;;;3.22;2.13;;;;;;;22.90;42.17;95390.69;5062428;28;20068;-69
2022/05/11 11:39:58;;;;;;;9.27;2.78;;;;;;;22.73;45.97;95388.63;5044107;28;20049;-70
2022/05/11 11:42:37;;;;;;;5.28;2.45;;;;;;;21.98;50.87;95386.97;5060974;28;20044;-69
2022/05/11 11:45:07;;;;;;;4.65;2.85;;;;;;;21.33;50.48;95385.75;5071034;28;20797;-69
2022/05/11 11:47:36;;;;;;;3.25;2.42;;;;;;;21.26;51.74;95393.25;5066375;28;20040;-69
2022/05/11 11:50:10;;;;;;;4.80;3.50;;;;;;;20.53;58.34;95393.25;5056596;28;20049;-69
2022/05/11 11:52:44;;;;;;;4.60;2.90;;;;;;;20.02;58.90;95389.22;5058869;28;20056;-69
2022/05/11 11:55:26;;;;;;;3.83;2.55;;;;;;;20.08;57.90;95386.50;5055044;28;20133;-68
2022/05/11 11:57:57;;;;;;;4.30;2.38;;;;;;;20.37;52.47;95382.03;5058489;28;20052;-68
2022/05/11 12:00:25;;;;;;;5.28;2.42;;;;;;;21.03;47.91;95378.97;5056584;28;20040;-69
2022/05/11 12:02:55;;;;;;;3.58;2.42;;;;;;;21.76;46.63;95375.09;5072563;28;20156;-69
2022/05/11 12:05:32;;;;;;;3.70;1.80;;;;;;;22.16;42.52;95378.16;5071733;28;20213;-70
2022/05/11 12:16:46;;;;;;;2.95;0.80;;;;;;;24.15;34.65;95364.59;5054119;28;20047;-70
2022/05/11 12:19:14;;;;;;;1.33;0.80;;;;;;;23.88;33.56;95364.72;5047385;28;20068;-70
2022/05/11 12:21:56;;;;;;;1.77;1.00;;;;;;;23.62;34.16;95362.63;5054266;28;20549;-70
2022/05/11 12:24:31;;;;;;;1.27;0.85;;;;;;;23.76;33.35;95352.72;5053517;28;20053;-70
2022/05/11 12:27:05;;;;;;;3.90;1.15;;;;;;;24.39;33.59;95347.50;5058355;28;20040;-68
2022/05/11 12:32:25;;;;;;;1.95;1.05;;;;;;;24.60;30.71;95353.91;5072474;28;20930;-69
2022/05/11 12:34:52;;;;;;;2.00;1.05;;;;;;;24.44;31.10;95350.03;5054933;28;20076;-70
2022/05/11 12:37:32;;;;;;;1.15;0.80;;;;;;;24.45;32.33;95346.28;5053713;28;20036;-70
2022/05/11 12:40:07;;;;;;;2.90;1.23;;;;;;;24.67;30.76;95352.66;5056661;28;20197;-69
2022/05/11 12:42:56;;;;;;;1.92;1.20;;;;;;;24.82;31.96;95338.94;5059175;28;20044;-69
2022/05/11 12:45:33;;;;;;;2.60;1.30;;;;;;;25.40;32.28;95341.56;5054253;28;20087;-69